Belleville, Wisconsin
Current Conditions -  °F | °C
As of 3:55 PM on Monday 22 Dec 2014 (Local Time) from KEFT Reporting Station
Drizzle Drizzle  
Wind Chill: -3°   Ceiling: 300
Heat Index:   Visibility: 1.2mi
Dew Point:   Wind: 9mph
Humidity: 100%   Direction: 90°E
Pressure: 29.62"   Gusts: 18mph
Location:  42.86°N, 89.54°W
Report Text: KEFT 222155Z AUTO 09008G16KT 1 1/4SM DZ OVC003 01/01 A2962 RMK AO2 P0001
Loading
Personal Weather Stations






























Interactive Weather Map New forecast layout! Learn more

10-Day Weather Forecast

Advertisements
Track Severe Weather on mobile